Time;durP1;ratioP1;P1;durP2;ratioP2;P2;SDS_P1;SDS_P2;PMS_P1;PMS_P2;Temp;Humidity;BMP_temperature;BMP_pressure;BME280_temperature;BME280_humidity;BME280_pressure;Samples;Min_cycle;Max_cycle;Signal;HPM_P1;HPM_P2
2022/05/11 00:00:35;;;;;;;24.00;5.00;;;12.50;92.40;;;;;;5009050;28;20519;-75
2022/05/11 00:03:01;;;;;;;22.95;5.53;;;12.50;92.30;;;;;;5002581;28;20030;-75
2022/05/11 00:05:27;;;;;;;26.65;5.18;;;12.50;92.30;;;;;;5031734;28;20037;-74
2022/05/11 00:07:53;;;;;;;26.05;5.72;;;12.50;92.40;;;;;;5007563;28;20030;-73
2022/05/11 00:10:19;;;;;;;25.42;5.70;;;12.50;92.50;;;;;;5006437;28;20030;-74
2022/05/11 00:12:46;;;;;;;24.73;5.53;;;12.50;92.50;;;;;;5008317;28;20030;-76
2022/05/11 00:15:14;;;;;;;27.13;5.75;;;12.50;92.50;;;;;;5006952;28;20135;-75
2022/05/11 00:17:40;;;;;;;26.10;6.03;;;12.50;92.60;;;;;;5006794;28;20117;-74
2022/05/11 00:20:07;;;;;;;24.50;5.78;;;12.50;92.60;;;;;;4998090;28;20116;-74
2022/05/11 00:22:36;;;;;;;24.38;5.53;;;12.50;92.60;;;;;;5003638;28;20053;-73
2022/05/11 00:25:04;;;;;;;26.58;4.88;;;12.50;92.60;;;;;;5007320;28;20038;-74
2022/05/11 00:27:31;;;;;;;28.05;5.47;;;12.50;92.70;;;;;;5006284;28;20034;-73
2022/05/11 00:29:57;;;;;;;22.00;4.45;;;12.50;92.60;;;;;;5002034;28;21372;-74
2022/05/11 00:32:25;;;;;;;32.83;5.57;;;12.50;92.70;;;;;;5000511;28;20477;-74
2022/05/11 00:34:51;;;;;;;23.73;5.35;;;12.50;92.60;;;;;;5007612;28;20029;-75
2022/05/11 00:37:17;;;;;;;25.52;5.50;;;12.50;92.70;;;;;;5005151;28;20034;-75
2022/05/11 00:39:43;;;;;;;28.88;5.70;;;12.50;92.70;;;;;;4999653;28;20438;-74
2022/05/11 00:42:09;;;;;;;26.25;5.55;;;12.50;92.70;;;;;;5005827;28;20034;-74
2022/05/11 00:44:35;;;;;;;23.20;5.18;;;12.50;92.70;;;;;;5007196;28;20030;-74
2022/05/11 00:47:21;;;;;;;25.45;5.45;;;12.50;92.60;;;;;;5005677;28;20084;-74
2022/05/11 00:49:53;;;;;;;28.55;6.60;;;12.50;92.60;;;;;;5001229;28;20513;-75
2022/05/11 00:52:29;;;;;;;20.80;5.00;;;12.50;92.50;;;;;;5000089;28;20464;-75
2022/05/11 00:54:59;;;;;;;28.38;5.53;;;12.50;92.50;;;;;;5038226;28;20026;-74
2022/05/11 00:57:31;;;;;;;25.95;6.03;;;12.50;92.40;;;;;;5007610;28;20479;-73
2022/05/11 00:59:58;;;;;;;26.98;5.53;;;12.50;92.30;;;;;;5009317;28;20685;-72
2022/05/11 01:02:24;;;;;;;22.77;5.25;;;12.50;92.10;;;;;;5005060;28;20117;-72
2022/05/11 01:04:53;;;;;;;26.25;4.97;;;12.50;92.00;;;;;;4999613;28;20205;-74
2022/05/11 01:07:19;;;;;;;22.55;4.97;;;12.50;92.00;;;;;;5008008;28;20539;-74
2022/05/11 01:09:45;;;;;;;25.00;5.85;;;12.40;91.90;;;;;;5008027;28;20029;-75
2022/05/11 01:12:17;;;;;;;25.35;5.07;;;12.40;92.00;;;;;;5002279;28;20024;-78
2022/05/11 01:14:46;;;;;;;28.13;5.13;;;12.40;92.00;;;;;;4998637;28;20034;-74
2022/05/11 01:17:12;;;;;;;24.63;4.93;;;12.40;92.00;;;;;;5006411;28;20117;-75
2022/05/11 01:19:44;;;;;;;27.70;5.85;;;12.40;91.90;;;;;;5000960;28;20172;-74
2022/05/11 01:22:15;;;;;;;27.90;5.75;;;12.40;91.90;;;;;;4998687;28;20029;-75
2022/05/11 01:24:43;;;;;;;23.02;5.50;;;12.40;91.90;;;;;;5004823;28;20083;-74
2022/05/11 01:27:38;;;;;;;26.30;5.47;;;12.40;92.00;;;;;;4997023;28;20052;-75
2022/05/11 01:30:11;;;;;;;27.88;5.93;;;12.40;92.20;;;;;;5003897;28;20041;-73
2022/05/11 01:32:37;;;;;;;26.88;5.53;;;12.50;91.90;;;;;;5006731;28;20026;-75
2022/05/11 01:35:12;;;;;;;25.20;5.15;;;12.50;91.80;;;;;;5000045;28;20120;-74
2022/05/11 01:37:44;;;;;;;24.67;5.32;;;12.50;91.80;;;;;;5004678;28;20072;-74
2022/05/11 01:40:10;;;;;;;22.90;4.35;;;12.50;91.60;;;;;;5005583;28;20030;-74
2022/05/11 01:42:36;;;;;;;23.50;4.38;;;12.50;91.50;;;;;;5004894;28;20731;-72
2022/05/11 01:45:01;;;;;;;27.10;4.65;;;12.50;91.40;;;;;;5004644;28;20033;-74
2022/05/11 01:47:27;;;;;;;23.27;4.65;;;12.50;91.40;;;;;;5006174;28;20029;-74
2022/05/11 01:49:53;;;;;;;23.15;4.60;;;12.50;91.50;;;;;;5005862;28;20022;-73
2022/05/11 01:52:18;;;;;;;25.48;4.47;;;12.50;91.40;;;;;;5000946;28;20137;-73
2022/05/11 01:54:46;;;;;;;29.67;5.22;;;12.50;91.50;;;;;;5002282;28;20022;-73
2022/05/11 01:57:11;;;;;;;20.83;4.40;;;12.50;91.50;;;;;;5005752;28;20029;-75
2022/05/11 01:59:37;;;;;;;27.20;4.75;;;12.50;91.50;;;;;;5005497;28;20037;-72
2022/05/11 02:02:03;;;;;;;15.55;4.10;;;12.50;91.40;;;;;;5000557;28;20022;-72
2022/05/11 02:09:57;;;;;;;26.50;5.60;;;12.50;91.50;;;;;;5005289;28;20061;-74
2022/05/11 02:12:23;;;;;;;26.60;5.10;;;12.40;91.40;;;;;;5008634;28;20058;-72
2022/05/11 02:14:49;;;;;;;31.15;5.57;;;12.50;91.30;;;;;;5010656;28;20034;-72
2022/05/11 02:17:14;;;;;;;20.10;3.72;;;12.50;91.20;;;;;;4998953;28;20049;-74
2022/05/11 02:19:40;;;;;;;25.45;4.60;;;12.40;91.10;;;;;;5008291;28;20435;-74
2022/05/11 02:22:05;;;;;;;16.90;4.20;;;12.50;91.00;;;;;;5006348;28;20026;-72
2022/05/11 02:24:31;;;;;;;25.25;5.72;;;12.50;91.10;;;;;;5004191;28;20054;-76
2022/05/11 02:27:02;;;;;;;19.83;4.47;;;12.50;91.10;;;;;;5004016;28;20036;-73
2022/05/11 02:29:28;;;;;;;27.05;5.65;;;12.40;91.00;;;;;;5005027;28;20049;-73
2022/05/11 02:31:53;;;;;;;20.83;4.35;;;12.40;91.00;;;;;;5006627;28;20053;-75
2022/05/11 02:37:03;;;;;;;25.25;4.82;;;12.40;91.10;;;;;;5008427;28;20095;-77
2022/05/11 02:39:29;;;;;;;24.52;5.60;;;12.40;91.50;;;;;;5010518;28;20645;-78
2022/05/11 02:41:55;;;;;;;19.45;4.03;;;12.40;91.20;;;;;;5009761;28;20029;-75
2022/05/11 02:44:21;;;;;;;20.88;4.95;;;12.40;91.10;;;;;;5011391;28;20095;-76
2022/05/11 02:46:46;;;;;;;18.60;4.75;;;12.40;91.10;;;;;;5015502;28;20030;-76
2022/05/11 02:49:12;;;;;;;23.00;5.03;;;12.40;90.90;;;;;;5004415;28;20027;-74
2022/05/11 02:51:37;;;;;;;19.77;4.60;;;12.40;90.90;;;;;;5008932;28;20034;-76
2022/05/11 02:54:04;;;;;;;19.33;4.20;;;12.40;90.80;;;;;;5020489;28;20071;-74
2022/05/11 02:56:29;;;;;;;18.55;3.80;;;12.50;90.70;;;;;;5005146;28;20467;-74
2022/05/11 02:58:55;;;;;;;21.27;5.00;;;12.50;90.60;;;;;;5009462;28;20467;-74
2022/05/11 03:01:21;;;;;;;22.00;4.13;;;12.40;90.50;;;;;;5009440;28;20025;-72
2022/05/11 03:03:46;;;;;;;18.50;4.28;;;12.50;90.60;;;;;;5019591;28;20033;-74
2022/05/11 03:06:12;;;;;;;17.88;4.10;;;12.50;90.60;;;;;;5013114;28;20473;-74
2022/05/11 03:08:38;;;;;;;19.80;4.18;;;12.50;90.50;;;;;;5006646;28;20034;-71
2022/05/11 03:11:05;;;;;;;21.48;4.97;;;12.50;90.40;;;;;;4999705;28;20050;-73
2022/05/11 03:13:31;;;;;;;19.02;4.35;;;12.50;90.60;;;;;;5010269;28;20061;-75
2022/05/11 03:15:56;;;;;;;24.30;5.28;;;12.50;90.70;;;;;;5017122;28;20049;-75
2022/05/11 03:18:22;;;;;;;16.90;4.45;;;12.50;90.70;;;;;;4997167;28;20062;-74
2022/05/11 03:20:48;;;;;;;20.95;4.82;;;12.50;90.70;;;;;;4997998;28;20029;-75
2022/05/11 03:23:13;;;;;;;24.90;4.97;;;12.50;90.60;;;;;;5006336;28;20499;-75
2022/05/11 03:25:39;;;;;;;21.83;3.85;;;12.50;90.60;;;;;;5007359;28;20048;-75
2022/05/11 03:28:05;;;;;;;20.13;4.97;;;12.50;90.60;;;;;;5005847;28;20033;-75
2022/05/11 03:30:31;;;;;;;25.80;5.22;;;12.50;90.80;;;;;;5000376;28;20617;-73
2022/05/11 03:35:42;;;;;;;20.05;4.25;;;12.50;90.30;;;;;;4999560;28;20042;-74
2022/05/11 03:38:09;;;;;;;21.52;4.47;;;12.60;90.00;;;;;;5007094;28;20034;-75
2022/05/11 03:40:37;;;;;;;19.65;4.93;;;12.50;89.70;;;;;;5000579;28;20061;-75
2022/05/11 03:43:03;;;;;;;19.75;4.47;;;12.60;89.30;;;;;;5002453;28;20037;-73
2022/05/11 03:45:30;;;;;;;18.00;4.10;;;12.50;89.60;;;;;;5002225;28;20032;-75
2022/05/11 03:47:55;;;;;;;23.85;4.60;;;12.50;89.60;;;;;;5019029;28;20029;-75
2022/05/11 03:50:22;;;;;;;21.25;4.43;;;12.60;89.60;;;;;;5024182;28;20111;-75
2022/05/11 03:52:49;;;;;;;15.10;3.85;;;12.60;89.70;;;;;;5010097;28;20032;-74
2022/05/11 03:55:15;;;;;;;17.75;4.68;;;12.60;89.60;;;;;;5001232;28;20052;-75
2022/05/11 03:57:41;;;;;;;17.13;4.00;;;12.60;89.60;;;;;;5006880;28;20034;-74
2022/05/11 04:00:12;;;;;;;18.05;3.75;;;12.60;89.10;;;;;;5008462;28;20030;-73
2022/05/11 04:02:38;;;;;;;22.85;4.13;;;12.70;89.30;;;;;;5000420;28;20030;-72
2022/05/11 04:05:05;;;;;;;18.02;4.68;;;12.70;90.00;;;;;;5021006;28;20042;-75
2022/05/11 04:07:32;;;;;;;22.08;5.68;;;12.70;90.20;;;;;;5004535;28;20369;-74
2022/05/11 04:09:57;;;;;;;19.85;4.82;;;12.80;90.30;;;;;;5001320;28;20026;-76
2022/05/11 04:12:24;;;;;;;24.35;4.63;;;12.70;90.20;;;;;;5004932;28;20030;-74
2022/05/11 04:14:50;;;;;;;23.23;5.05;;;12.70;90.20;;;;;;5000484;28;20484;-75
2022/05/11 04:17:15;;;;;;;21.90;4.22;;;12.70;90.20;;;;;;5005795;28;20089;-73
2022/05/11 04:19:41;;;;;;;18.83;5.00;;;12.70;90.10;;;;;;5009976;28;20025;-74
2022/05/11 04:22:06;;;;;;;21.52;4.80;;;12.70;90.40;;;;;;5000489;28;20032;-73
2022/05/11 04:24:32;;;;;;;17.25;4.28;;;12.70;90.30;;;;;;5009562;28;20113;-74
2022/05/11 04:26:59;;;;;;;17.70;4.15;;;12.70;90.40;;;;;;5005332;28;20041;-74
2022/05/11 04:29:24;;;;;;;23.55;5.53;;;12.70;90.50;;;;;;5005508;28;20117;-74
2022/05/11 04:31:55;;;;;;;17.63;4.75;;;12.70;90.60;;;;;;5023095;28;20094;-74
2022/05/11 04:34:21;;;;;;;17.15;5.35;;;12.70;90.70;;;;;;5003439;28;20194;-76
2022/05/11 04:36:47;;;;;;;19.10;4.57;;;12.70;90.70;;;;;;5001305;28;20571;-75
2022/05/11 04:39:12;;;;;;;21.48;4.70;;;12.70;90.50;;;;;;5007813;28;20041;-77
2022/05/11 04:41:38;;;;;;;21.83;4.65;;;12.70;90.30;;;;;;5010168;28;20053;-76
2022/05/11 04:44:04;;;;;;;19.88;4.72;;;12.70;90.40;;;;;;5008239;28;20032;-75
2022/05/11 04:46:33;;;;;;;20.17;4.55;;;12.60;90.40;;;;;;5008118;28;20121;-75
2022/05/11 04:49:19;;;;;;;21.40;4.90;;;12.60;90.60;;;;;;5010172;28;20033;-75
2022/05/11 04:51:49;;;;;;;26.83;6.03;;;12.60;90.90;;;;;;5006948;28;20460;-76
2022/05/11 04:54:15;;;;;;;21.10;4.82;;;12.60;90.70;;;;;;5041366;28;20084;-73
2022/05/11 04:56:41;;;;;;;18.88;5.38;;;12.50;90.80;;;;;;5006386;28;20044;-75
2022/05/11 04:59:08;;;;;;;19.50;5.45;;;12.50;90.90;;;;;;5006173;28;20026;-76
2022/05/11 05:01:35;;;;;;;21.48;5.50;;;12.50;91.00;;;;;;5035282;28;20033;-75
2022/05/11 05:04:01;;;;;;;19.85;4.78;;;12.60;91.10;;;;;;5006027;28;20026;-75
2022/05/11 05:06:28;;;;;;;19.90;6.00;;;12.60;91.10;;;;;;5023662;28;20097;-74
2022/05/11 05:08:55;;;;;;;22.45;5.88;;;12.70;90.90;;;;;;5009259;28;20034;-73
2022/05/11 05:11:21;;;;;;;22.17;5.07;;;12.70;90.90;;;;;;5015985;28;20037;-74
2022/05/11 05:13:47;;;;;;;20.10;5.53;;;12.70;90.90;;;;;;5002632;28;20027;-74
2022/05/11 05:16:12;;;;;;;18.75;5.78;;;12.80;91.00;;;;;;5024550;28;20038;-74
2022/05/11 05:18:38;;;;;;;20.88;5.35;;;12.80;91.00;;;;;;5006985;28;20087;-74
2022/05/11 05:21:03;;;;;;;20.92;5.38;;;12.80;90.60;;;;;;5004292;28;20087;-74
2022/05/11 05:23:29;;;;;;;24.98;5.28;;;12.80;90.70;;;;;;5011002;28;20488;-74
2022/05/11 05:25:55;;;;;;;22.95;6.05;;;12.90;90.50;;;;;;5008295;28;20030;-75
2022/05/11 05:31:09;;;;;;;31.20;7.30;;;12.90;91.10;;;;;;5002191;28;20037;-75
2022/05/11 05:33:39;;;;;;;25.83;6.93;;;12.80;91.30;;;;;;4998429;28;20037;-74
2022/05/11 05:36:05;;;;;;;21.52;5.97;;;12.80;91.20;;;;;;5022426;28;20038;-73
2022/05/11 05:38:31;;;;;;;22.10;5.78;;;12.80;91.00;;;;;;5022627;28;20096;-74
2022/05/11 05:40:56;;;;;;;22.42;5.40;;;12.80;90.90;;;;;;5007581;28;20025;-74
2022/05/11 05:43:23;;;;;;;20.52;4.90;;;12.80;90.70;;;;;;5007885;28;20431;-74
2022/05/11 05:45:50;;;;;;;21.88;4.75;;;12.80;90.30;;;;;;5006780;28;20487;-73
2022/05/11 05:48:17;;;;;;;23.25;4.60;;;12.90;89.60;;;;;;5003225;28;20796;-74
2022/05/11 05:50:43;;;;;;;21.70;5.68;;;12.80;89.70;;;;;;5033971;28;20089;-76
2022/05/11 05:53:09;;;;;;;22.75;5.07;;;12.90;90.20;;;;;;5009135;28;20025;-74
2022/05/11 05:55:34;;;;;;;22.08;5.47;;;12.90;90.40;;;;;;5003717;28;20037;-74
2022/05/11 05:58:00;;;;;;;21.98;6.13;;;12.90;90.50;;;;;;5005002;28;20030;-74
2022/05/11 06:00:26;;;;;;;21.23;5.72;;;13.00;90.50;;;;;;5003432;28;20025;-74
2022/05/11 06:02:54;;;;;;;24.10;5.22;;;13.00;90.50;;;;;;4999644;28;20353;-74
2022/05/11 06:05:20;;;;;;;24.25;5.65;;;13.00;90.50;;;;;;5002557;28;20042;-74
2022/05/11 06:07:45;;;;;;;24.17;5.47;;;13.00;90.60;;;;;;5002836;28;20084;-74
2022/05/11 06:10:11;;;;;;;23.83;5.82;;;13.10;90.30;;;;;;5009566;28;20026;-73
2022/05/11 06:12:37;;;;;;;20.05;5.30;;;13.10;90.50;;;;;;5004089;28;20026;-75
2022/05/11 06:15:03;;;;;;;19.55;4.95;;;13.10;90.30;;;;;;5001514;28;20026;-74
2022/05/11 06:17:29;;;;;;;23.00;4.70;;;13.10;90.10;;;;;;5003055;28;20589;-73
2022/05/11 06:19:55;;;;;;;21.38;5.10;;;13.20;90.00;;;;;;5008045;28;20120;-75
2022/05/11 06:22:21;;;;;;;19.10;4.72;;;13.20;89.60;;;;;;5008830;28;20097;-75
2022/05/11 06:24:47;;;;;;;21.98;5.28;;;13.30;89.20;;;;;;5032306;28;20026;-76
2022/05/11 06:27:15;;;;;;;20.85;4.60;;;13.30;88.80;;;;;;5022353;28;20030;-74
2022/05/11 06:29:42;;;;;;;16.60;4.05;;;13.30;87.90;;;;;;5010360;28;20026;-74
2022/05/11 06:32:08;;;;;;;19.63;4.07;;;13.30;87.20;;;;;;5010661;28;20034;-73
2022/05/11 06:34:33;;;;;;;17.50;4.07;;;13.40;86.70;;;;;;5006594;28;20386;-75
2022/05/11 06:36:59;;;;;;;18.25;3.88;;;13.50;86.80;;;;;;5039761;28;20563;-73
2022/05/11 06:39:25;;;;;;;13.65;3.85;;;13.50;85.40;;;;;;5011579;28;20038;-72
2022/05/11 06:41:50;;;;;;;17.50;4.07;;;13.60;84.20;;;;;;5005031;28;20464;-70
2022/05/11 06:44:16;;;;;;;16.80;3.88;;;13.60;84.40;;;;;;5007640;28;20026;-71
2022/05/11 06:46:42;;;;;;;13.00;3.10;;;13.70;84.10;;;;;;5008438;28;20056;-73
2022/05/11 06:49:08;;;;;;;15.43;3.45;;;13.70;83.60;;;;;;5012403;28;20464;-73
2022/05/11 06:51:34;;;;;;;14.60;3.17;;;13.80;83.20;;;;;;5026923;28;20022;-72
2022/05/11 06:59:32;;;;;;;15.98;3.45;;;14.00;82.30;;;;;;5010606;28;20652;-73
2022/05/11 07:01:59;;;;;;;18.92;3.53;;;14.20;82.00;;;;;;5009252;28;20034;-72
2022/05/11 07:04:26;;;;;;;16.38;3.33;;;14.30;82.40;;;;;;5017156;28;20038;-73
2022/05/11 07:06:53;;;;;;;15.13;3.50;;;14.50;80.90;;;;;;5029491;28;20133;-72
2022/05/11 07:09:21;;;;;;;16.85;3.53;;;14.50;80.60;;;;;;5036405;28;20022;-73
2022/05/11 07:14:31;;;;;;;13.90;3.58;;;14.90;79.80;;;;;;5007221;28;20839;-73
2022/05/11 07:16:56;;;;;;;20.40;3.33;;;14.80;79.80;;;;;;5001739;28;20176;-73
2022/05/11 07:19:23;;;;;;;13.63;2.97;;;14.70;79.30;;;;;;4993441;28;20026;-73
2022/05/11 07:21:50;;;;;;;19.50;3.75;;;14.60;80.20;;;;;;5004297;28;20507;-77
2022/05/11 07:24:16;;;;;;;19.88;3.65;;;14.70;80.00;;;;;;5009915;28;20041;-71
2022/05/11 07:26:42;;;;;;;20.95;3.33;;;14.70;78.80;;;;;;5011632;28;20544;-73
2022/05/11 07:29:08;;;;;;;17.98;3.28;;;14.70;78.40;;;;;;5011287;28;20104;-72
2022/05/11 07:31:33;;;;;;;21.13;3.60;;;14.80;78.30;;;;;;5026850;28;20145;-74
2022/05/11 07:33:59;;;;;;;14.50;2.78;;;14.80;80.10;;;;;;5010751;28;20140;-73
2022/05/11 07:36:25;;;;;;;16.45;3.10;;;14.90;79.10;;;;;;5009288;28;20041;-74
2022/05/11 07:38:51;;;;;;;14.85;3.35;;;15.00;77.80;;;;;;5009317;28;20605;-74
2022/05/11 07:41:17;;;;;;;13.15;2.80;;;15.00;76.80;;;;;;5040764;28;20069;-75
2022/05/11 07:43:43;;;;;;;12.45;2.92;;;15.00;76.60;;;;;;5008890;28;20036;-73
2022/05/11 07:46:09;;;;;;;18.05;3.70;;;14.80;77.60;;;;;;5040793;28;20026;-72
2022/05/11 07:48:35;;;;;;;18.15;3.60;;;14.90;76.90;;;;;;5010693;28;20034;-72
2022/05/11 07:51:01;;;;;;;19.67;3.38;;;14.90;77.80;;;;;;5011275;28;20021;-72
2022/05/11 07:53:26;;;;;;;15.30;2.97;;;14.90;77.60;;;;;;5010903;28;20041;-75
2022/05/11 07:59:52;;;;;;;13.82;2.70;;;14.90;78.00;;;;;;5006666;28;20099;-73
2022/05/11 08:01:23;;;;;;;17.10;2.88;;;15.00;77.70;;;;;;5003145;28;20110;-71
2022/05/11 08:03:49;;;;;;;16.33;3.55;;;14.80;78.10;;;;;;5038614;28;20117;-73
2022/05/11 08:06:16;;;;;;;14.07;3.10;;;14.70;79.30;;;;;;5007393;28;20547;-71
2022/05/11 08:08:42;;;;;;;18.63;3.58;;;14.70;80.50;;;;;;5009717;28;20480;-73
2022/05/11 08:11:08;;;;;;;17.00;3.45;;;14.70;81.10;;;;;;5038249;28;20026;-73
2022/05/11 08:13:34;;;;;;;24.13;4.00;;;14.80;81.00;;;;;;5022390;28;20041;-74
2022/05/11 08:16:00;;;;;;;16.27;3.30;;;14.90;81.00;;;;;;5010229;28;20042;-73
2022/05/11 08:18:26;;;;;;;15.80;3.10;;;15.10;80.80;;;;;;5010621;28;20054;-73
2022/05/11 08:20:52;;;;;;;17.23;3.28;;;15.20;79.20;;;;;;5010060;28;20057;-73
2022/05/11 08:23:18;;;;;;;16.88;3.50;;;15.30;78.70;;;;;;5009635;28;20061;-76
2022/05/11 08:25:46;;;;;;;18.98;4.22;;;15.50;79.20;;;;;;5009984;28;20032;-75
2022/05/11 08:28:18;;;;;;;18.17;3.72;;;15.50;79.10;;;;;;5010526;28;20447;-74
2022/05/11 08:33:31;;;;;;;15.80;2.95;;;15.80;77.70;;;;;;5003225;28;20754;-76
2022/05/11 08:36:00;;;;;;;15.25;3.17;;;15.90;77.30;;;;;;5022088;28;20030;-80
2022/05/11 08:38:32;;;;;;;16.42;3.85;;;16.10;77.00;;;;;;5009377;28;20037;-74
2022/05/11 08:41:36;;;;;;;19.20;3.60;;;16.10;76.80;;;;;;5008905;28;20041;-77
2022/05/11 08:44:10;;;;;;;11.88;2.95;;;16.30;75.80;;;;;;5009767;28;20033;-79
2022/05/11 08:46:39;;;;;;;22.33;3.35;;;16.30;76.80;;;;;;4996588;28;20030;-81
2022/05/11 08:49:12;;;;;;;16.60;3.72;;;16.40;74.60;;;;;;4990180;28;20027;-80
2022/05/11 08:51:59;;;;;;;17.83;3.40;;;16.30;74.70;;;;;;5003698;28;20036;-75
2022/05/11 08:54:44;;;;;;;12.57;2.95;;;16.40;75.80;;;;;;5009840;28;20661;-76
2022/05/11 08:57:23;;;;;;;16.17;3.17;;;16.60;74.30;;;;;;5009190;28;20034;-74
2022/05/11 08:59:52;;;;;;;15.65;3.40;;;16.70;74.40;;;;;;5009839;28;20022;-75
2022/05/11 09:02:34;;;;;;;14.17;3.10;;;16.70;74.60;;;;;;5024849;28;20030;-77
2022/05/11 09:05:02;;;;;;;14.00;3.40;;;16.60;73.10;;;;;;4990488;28;20031;-76
2022/05/11 09:07:32;;;;;;;16.30;3.20;;;16.40;75.80;;;;;;4989570;28;20034;-78
2022/05/11 09:09:58;;;;;;;17.83;3.30;;;16.40;75.40;;;;;;5008517;28;20496;-75
2022/05/11 09:12:24;;;;;;;19.80;3.88;;;16.30;74.80;;;;;;5008990;28;20058;-76
2022/05/11 09:14:59;;;;;;;19.58;3.67;;;16.50;76.70;;;;;;5008960;28;20034;-76
2022/05/11 09:17:40;;;;;;;17.85;3.45;;;16.60;75.10;;;;;;4998846;28;20061;-73
2022/05/11 09:20:05;;;;;;;;;;;16.40;73.70;;;;;;4999296;28;20034;-79
2022/05/11 09:22:33;;;;;;;15.85;3.90;;;16.20;73.40;;;;;;5005349;28;19917;-75
2022/05/11 09:25:03;;;;;;;15.45;3.13;;;16.10;76.20;;;;;;5008944;28;20026;-76
2022/05/11 09:27:35;;;;;;;15.38;3.15;;;15.90;74.90;;;;;;5009030;28;20030;-77
2022/05/11 09:30:22;;;;;;;16.40;3.28;;;15.70;75.10;;;;;;5009014;28;20034;-78
2022/05/11 09:32:52;;;;;;;16.30;2.70;;;15.50;76.60;;;;;;5008957;28;20507;-74
2022/05/11 09:35:33;;;;;;;12.45;2.58;;;15.40;76.50;;;;;;5007387;28;20030;-74
2022/05/11 09:38:27;;;;;;;17.88;2.97;;;15.30;77.40;;;;;;4991984;28;20060;-75
2022/05/11 09:40:57;;;;;;;14.60;2.60;;;15.40;77.80;;;;;;4989297;28;20030;-74
2022/05/11 09:43:38;;;;;;;19.60;3.72;;;15.50;78.10;;;;;;4989311;28;20133;-74
2022/05/11 09:46:28;;;;;;;14.77;2.90;;;15.60;76.60;;;;;;4989373;28;20414;-76
2022/05/11 09:49:00;;;;;;;17.17;3.10;;;15.60;76.90;;;;;;5002568;28;20111;-74
2022/05/11 09:51:25;;;;;;;11.38;2.95;;;15.50;76.80;;;;;;5020780;28;20037;-75
2022/05/11 09:54:05;;;;;;;13.75;3.00;;;15.40;76.40;;;;;;5003280;28;20033;-74
2022/05/11 09:56:36;;;;;;;15.13;3.63;;;15.30;77.40;;;;;;5006313;28;20099;-77
2022/05/11 09:59:24;;;;;;;18.50;3.92;;;15.50;77.60;;;;;;5006993;28;20715;-74
2022/05/11 10:02:04;;;;;;;18.27;3.90;;;15.60;79.10;;;;;;5008227;28;20060;-75
2022/05/11 10:04:38;;;;;;;18.35;3.67;;;15.70;77.30;;;;;;5009429;28;20022;-75
2022/05/11 10:07:08;;;;;;;16.83;3.83;;;15.60;77.10;;;;;;5007546;28;20065;-74
2022/05/11 10:09:40;;;;;;;15.48;4.07;;;15.70;78.40;;;;;;4999139;28;20403;-74
2022/05/11 10:12:11;;;;;;;18.05;3.60;;;15.60;78.60;;;;;;4998766;28;20650;-75
2022/05/11 10:23:24;;;;;;;17.65;4.20;;;15.40;79.20;;;;;;5007569;28;20109;-74
2022/05/11 10:26:00;;;;;;;19.33;3.97;;;15.30;81.00;;;;;;5006621;28;20034;-74
2022/05/11 10:28:37;;;;;;;16.48;3.28;;;15.30;81.40;;;;;;4999274;28;20053;-75
2022/05/11 10:31:33;;;;;;;20.63;4.38;;;15.30;80.40;;;;;;5006747;28;20030;-78
2022/05/11 10:34:09;;;;;;;21.92;4.70;;;15.30;81.50;;;;;;5007515;28;20030;-76
2022/05/11 10:36:59;;;;;;;17.67;4.72;;;15.40;81.50;;;;;;5004826;28;20900;-75
2022/05/11 10:39:37;;;;;;;16.23;3.35;;;15.40;79.70;;;;;;5022328;28;20046;-74
2022/05/11 10:42:20;;;;;;;14.55;3.08;;;15.40;80.20;;;;;;5007706;28;20018;-74
2022/05/11 10:44:48;;;;;;;17.77;3.92;;;15.40;80.00;;;;;;5003657;28;20143;-75
2022/05/11 10:47:42;;;;;;;18.65;4.22;;;15.30;80.50;;;;;;5005495;28;20029;-74
2022/05/11 10:50:23;;;;;;;21.08;4.65;;;15.30;80.60;;;;;;5003890;28;20375;-74
2022/05/11 10:52:51;;;;;;;15.75;4.13;;;15.40;80.40;;;;;;5008201;28;20026;-75
2022/05/11 10:55:26;;;;;;;15.93;3.92;;;15.30;79.30;;;;;;5010878;28;20073;-72
2022/05/11 10:58:01;;;;;;;17.30;3.35;;;15.30;80.40;;;;;;5009054;28;20034;-74
2022/05/11 11:00:30;;;;;;;17.45;3.60;;;15.20;80.10;;;;;;5010398;28;20396;-80
2022/05/11 11:03:33;;;;;;;13.25;3.90;;;15.30;80.60;;;;;;5021045;28;20030;-75
2022/05/11 11:09:01;;;;;;;;;;;15.40;80.90;;;;;;5011712;28;20024;-75
2022/05/11 11:11:29;;;;;;;18.55;3.45;;;15.60;80.40;;;;;;5010457;28;19962;-78
2022/05/11 11:14:00;;;;;;;22.23;4.38;;;15.70;79.70;;;;;;5011750;28;20469;-78
2022/05/11 11:16:37;;;;;;;19.60;3.85;;;15.90;77.30;;;;;;5010839;28;20050;-77
2022/05/11 11:19:05;;;;;;;17.50;3.53;;;15.90;78.30;;;;;;5008291;28;20141;-77
2022/05/11 11:21:31;;;;;;;13.02;3.05;;;16.00;77.30;;;;;;5039557;28;20125;-74
2022/05/11 11:24:17;;;;;;;20.45;4.15;;;16.20;77.10;;;;;;5037248;28;20021;-75
2022/05/11 11:26:49;;;;;;;14.60;3.40;;;16.50;76.10;;;;;;5011469;28;20037;-75
2022/05/11 11:29:18;;;;;;;18.92;3.33;;;16.50;75.60;;;;;;5009272;28;20022;-76
2022/05/11 11:32:02;;;;;;;19.83;4.15;;;16.60;75.10;;;;;;5010186;28;20026;-74
2022/05/11 11:34:31;;;;;;;13.98;3.22;;;16.70;75.40;;;;;;5011343;28;20124;-76
2022/05/11 11:36:58;;;;;;;21.08;3.65;;;16.60;75.30;;;;;;5009269;28;20041;-75
2022/05/11 11:39:48;;;;;;;21.23;3.50;;;16.60;74.10;;;;;;5010925;28;20464;-77
2022/05/11 11:42:33;;;;;;;17.05;3.28;;;16.70;74.10;;;;;;5006536;28;20029;-73
2022/05/11 11:44:59;;;;;;;14.48;3.20;;;16.70;75.60;;;;;;5039470;28;20030;-74
2022/05/11 11:47:26;;;;;;;19.35;4.25;;;16.70;74.50;;;;;;4999816;28;20103;-76
2022/05/11 11:49:52;;;;;;;14.98;3.58;;;16.60;74.80;;;;;;5008763;28;20036;-73
2022/05/11 11:52:44;;;;;;;15.93;3.25;;;16.30;74.50;;;;;;5006110;28;20062;-76
2022/05/11 11:55:30;;;;;;;18.33;2.80;;;16.10;76.20;;;;;;5005270;28;20141;-75
2022/05/11 11:58:10;;;;;;;12.95;3.00;;;16.00;76.40;;;;;;5007371;28;20072;-75
2022/05/11 12:00:48;;;;;;;14.93;3.60;;;15.90;77.40;;;;;;5010016;28;20030;-74
2022/05/11 12:03:22;;;;;;;21.67;4.22;;;15.80;77.50;;;;;;5002838;28;20026;-76
2022/05/11 12:05:51;;;;;;;20.50;3.53;;;15.90;79.40;;;;;;4998227;28;20054;-75
2022/05/11 12:17:05;;;;;;;17.55;3.45;;;16.10;77.20;;;;;;5010077;28;20037;-80
2022/05/11 12:19:37;;;;;;;19.63;3.22;;;16.30;76.70;;;;;;5009535;28;20092;-76
2022/05/11 12:22:13;;;;;;;13.98;3.20;;;16.30;76.50;;;;;;5008552;28;20740;-78
2022/05/11 12:24:47;;;;;;;16.88;3.25;;;16.40;76.10;;;;;;4997017;28;20035;-76
2022/05/11 12:27:27;;;;;;;16.23;3.15;;;16.50;75.20;;;;;;5001875;28;20029;-74
2022/05/11 12:30:06;;;;;;;11.48;3.00;;;16.50;74.60;;;;;;5009124;28;20030;-74
2022/05/11 12:32:38;;;;;;;16.27;2.92;;;16.40;74.60;;;;;;5009198;28;20109;-75
2022/05/11 12:35:29;;;;;;;13.90;2.75;;;16.30;74.90;;;;;;5007901;28;20388;-76
2022/05/11 12:38:04;;;;;;;20.55;3.28;;;16.20;73.50;;;;;;5009034;28;20049;-74
2022/05/11 12:40:43;;;;;;;15.43;3.10;;;16.30;75.20;;;;;;4989950;28;20727;-72
2022/05/11 12:43:31;;;;;;;15.32;2.53;;;16.30;74.50;;;;;;5000895;28;20032;-74
2022/05/11 12:46:02;;;;;;;11.75;2.35;;;16.30;75.00;;;;;;4997664;28;20046;-72
2022/05/11 12:48:34;;;;;;;12.73;2.78;;;16.40;73.70;;;;;;5004605;28;20049;-72
2022/05/11 12:51:10;;;;;;;15.27;3.03;;;16.50;72.90;;;;;;5004104;28;20097;-75
2022/05/11 12:53:39;;;;;;;17.30;3.13;;;16.50;74.40;;;;;;5005692;28;20084;-75
2022/05/11 12:56:13;;;;;;;14.87;3.63;;;16.60;73.80;;;;;;5037393;28;20435;-76
2022/05/11 12:58:46;;;;;;;12.60;2.60;;;16.70;73.10;;;;;;5007822;28;20302;-77
2022/05/11 13:01:14;;;;;;;12.82;3.25;;;17.00;73.70;;;;;;5006794;28;20320;-75
2022/05/11 13:03:42;;;;;;;12.25;3.40;;;17.00;72.20;;;;;;5008134;28;20033;-74
2022/05/11 13:06:26;;;;;;;19.80;3.03;;;16.90;73.10;;;;;;5035483;28;20030;-75
2022/05/11 13:08:56;;;;;;;17.65;3.13;;;16.80;73.00;;;;;;5003694;28;20034;-75
2022/05/11 13:11:25;;;;;;;17.42;3.60;;;16.70;73.00;;;;;;5010570;28;20033;-76
2022/05/11 13:13:55;;;;;;;16.10;4.88;;;16.50;73.70;;;;;;5007954;28;20465;-74
2022/05/11 13:16:33;;;;;;;17.92;4.90;;;16.30;74.50;;;;;;5007702;28;20141;-75
2022/05/11 13:19:16;;;;;;;18.30;6.20;;;16.20;75.00;;;;;;5002656;28;20057;-72
2022/05/11 13:21:46;;;;;;;21.48;7.18;;;16.00;75.40;;;;;;5007306;28;20585;-74
2022/05/11 13:24:12;;;;;;;20.40;5.95;;;15.80;75.60;;;;;;5004738;28;20037;-76
2022/05/11 13:26:42;;;;;;;19.77;5.45;;;15.70;76.90;;;;;;5006400;28;20091;-76
2022/05/11 13:29:17;;;;;;;17.83;4.20;;;15.60;77.90;;;;;;5007840;28;20625;-74
2022/05/11 13:31:43;;;;;;;16.13;4.35;;;15.50;77.90;;;;;;5006435;28;20137;-73
2022/05/11 13:34:32;;;;;;;19.45;5.32;;;15.40;78.40;;;;;;5006589;28;20029;-74
2022/05/11 13:36:59;;;;;;;23.13;5.72;;;15.30;80.20;;;;;;5020425;28;20038;-75
2022/05/11 13:39:31;;;;;;;16.27;4.97;;;15.30;81.70;;;;;;5006478;28;20060;-76